sensor_id;sensor_type;location;lat;lon;timestamp;temperature;humidity
23507;DHT22;11930;53.076;18.250;2023-07-31T00:00:45;17.70;99.90
23507;DHT22;11930;53.076;18.250;2023-07-31T00:03:28;17.70;99.90
23507;DHT22;11930;53.076;18.250;2023-07-31T00:05:54;17.60;99.90
23507;DHT22;11930;53.076;18.250;2023-07-31T00:08:20;17.60;99.90
23507;DHT22;11930;53.076;18.250;2023-07-31T00:10:46;17.50;99.90
23507;DHT22;11930;53.076;18.250;2023-07-31T00:13:12;17.50;99.90
23507;DHT22;11930;53.076;18.250;2023-07-31T00:15:38;17.40;99.90
23507;DHT22;11930;53.076;18.250;2023-07-31T00:18:04;17.40;99.90
23507;DHT22;11930;53.076;18.250;2023-07-31T00:20:30;17.30;99.90
23507;DHT22;11930;53.076;18.250;2023-07-31T00:22:56;17.20;99.90
23507;DHT22;11930;53.076;18.250;2023-07-31T00:25:22;17.20;99.90
23507;DHT22;11930;53.076;18.250;2023-07-31T00:27:48;17.20;99.90
23507;DHT22;11930;53.076;18.250;2023-07-31T00:30:14;17.20;99.90
23507;DHT22;11930;53.076;18.250;2023-07-31T00:32:40;17.20;99.90
23507;DHT22;11930;53.076;18.250;2023-07-31T00:35:07;17.20;99.90
23507;DHT22;11930;53.076;18.250;2023-07-31T00:37:32;17.10;99.90
23507;DHT22;11930;53.076;18.250;2023-07-31T00:39:59;17.20;99.90
23507;DHT22;11930;53.076;18.250;2023-07-31T00:44:51;17.10;99.90
23507;DHT22;11930;53.076;18.250;2023-07-31T00:47:17;17.20;99.90
23507;DHT22;11930;53.076;18.250;2023-07-31T00:49:43;17.10;99.90
23507;DHT22;11930;53.076;18.250;2023-07-31T00:52:10;17.10;99.90
23507;DHT22;11930;53.076;18.250;2023-07-31T00:54:36;17.10;99.90
23507;DHT22;11930;53.076;18.250;2023-07-31T00:57:02;17.10;99.90
23507;DHT22;11930;53.076;18.250;2023-07-31T00:59:29;17.10;99.90
23507;DHT22;11930;53.076;18.250;2023-07-31T01:01:55;17.10;99.90
23507;DHT22;11930;53.076;18.250;2023-07-31T01:04:21;17.10;99.90
23507;DHT22;11930;53.076;18.250;2023-07-31T01:09:24;17.10;99.90
23507;DHT22;11930;53.076;18.250;2023-07-31T01:11:57;17.00;99.90
23507;DHT22;11930;53.076;18.250;2023-07-31T01:14:26;17.00;99.90
23507;DHT22;11930;53.076;18.250;2023-07-31T01:16:52;16.90;99.90
23507;DHT22;11930;53.076;18.250;2023-07-31T01:19:22;16.90;99.90
23507;DHT22;11930;53.076;18.250;2023-07-31T01:27:30;16.70;99.90
23507;DHT22;11930;53.076;18.250;2023-07-31T01:32:39;16.50;99.90
23507;DHT22;11930;53.076;18.250;2023-07-31T01:35:06;16.50;99.90
23507;DHT22;11930;53.076;18.250;2023-07-31T01:37:33;16.50;99.90
23507;DHT22;11930;53.076;18.250;2023-07-31T01:39:59;16.40;99.90
23507;DHT22;11930;53.076;18.250;2023-07-31T01:42:25;16.40;99.90
23507;DHT22;11930;53.076;18.250;2023-07-31T01:44:51;16.40;99.90
23507;DHT22;11930;53.076;18.250;2023-07-31T01:47:17;16.30;99.90
23507;DHT22;11930;53.076;18.250;2023-07-31T01:49:43;16.30;99.90
23507;DHT22;11930;53.076;18.250;2023-07-31T01:52:09;16.30;99.90
23507;DHT22;11930;53.076;18.250;2023-07-31T01:54:36;16.20;99.90
23507;DHT22;11930;53.076;18.250;2023-07-31T01:57:03;16.20;99.90
23507;DHT22;11930;53.076;18.250;2023-07-31T01:59:29;16.20;99.90
23507;DHT22;11930;53.076;18.250;2023-07-31T02:01:55;16.20;99.90
23507;DHT22;11930;53.076;18.250;2023-07-31T02:04:21;16.20;99.90
23507;DHT22;11930;53.076;18.250;2023-07-31T02:06:47;16.20;99.90
23507;DHT22;11930;53.076;18.250;2023-07-31T02:09:13;16.20;99.90
23507;DHT22;11930;53.076;18.250;2023-07-31T02:11:39;16.10;99.90
23507;DHT22;11930;53.076;18.250;2023-07-31T02:14:05;16.10;99.90
23507;DHT22;11930;53.076;18.250;2023-07-31T02:16:30;16.10;99.90
23507;DHT22;11930;53.076;18.250;2023-07-31T02:18:57;16.10;99.90
23507;DHT22;11930;53.076;18.250;2023-07-31T02:21:23;16.10;99.90
23507;DHT22;11930;53.076;18.250;2023-07-31T02:23:49;16.00;99.90
23507;DHT22;11930;53.076;18.250;2023-07-31T02:26:15;16.00;99.90
23507;DHT22;11930;53.076;18.250;2023-07-31T02:28:41;15.90;99.90
23507;DHT22;11930;53.076;18.250;2023-07-31T02:31:08;15.90;99.90
23507;DHT22;11930;53.076;18.250;2023-07-31T02:33:35;15.80;99.90
23507;DHT22;11930;53.076;18.250;2023-07-31T02:36:00;15.70;99.90
23507;DHT22;11930;53.076;18.250;2023-07-31T02:38:27;15.70;99.90
23507;DHT22;11930;53.076;18.250;2023-07-31T02:40:53;15.60;99.90
23507;DHT22;11930;53.076;18.250;2023-07-31T02:43:19;15.50;99.90
23507;DHT22;11930;53.076;18.250;2023-07-31T02:45:50;15.50;99.90
23507;DHT22;11930;53.076;18.250;2023-07-31T02:48:16;15.40;99.90
23507;DHT22;11930;53.076;18.250;2023-07-31T02:50:42;15.30;99.90
23507;DHT22;11930;53.076;18.250;2023-07-31T02:53:08;15.20;99.90
23507;DHT22;11930;53.076;18.250;2023-07-31T02:55:34;15.20;99.90
23507;DHT22;11930;53.076;18.250;2023-07-31T02:58:00;15.10;99.90
23507;DHT22;11930;53.076;18.250;2023-07-31T03:00:26;15.00;99.90
23507;DHT22;11930;53.076;18.250;2023-07-31T03:02:52;15.00;99.90
23507;DHT22;11930;53.076;18.250;2023-07-31T03:05:18;15.00;99.90
23507;DHT22;11930;53.076;18.250;2023-07-31T03:07:44;14.90;99.90
23507;DHT22;11930;53.076;18.250;2023-07-31T03:10:10;14.90;99.90
23507;DHT22;11930;53.076;18.250;2023-07-31T03:12:36;14.90;99.90
23507;DHT22;11930;53.076;18.250;2023-07-31T03:15:02;14.90;99.90
23507;DHT22;11930;53.076;18.250;2023-07-31T03:17:28;14.90;99.90
23507;DHT22;11930;53.076;18.250;2023-07-31T03:19:54;14.90;99.90
23507;DHT22;11930;53.076;18.250;2023-07-31T03:22:20;14.90;99.90
23507;DHT22;11930;53.076;18.250;2023-07-31T03:24:46;14.90;99.90
23507;DHT22;11930;53.076;18.250;2023-07-31T03:27:12;14.80;99.90
23507;DHT22;11930;53.076;18.250;2023-07-31T03:29:38;15.00;99.90
23507;DHT22;11930;53.076;18.250;2023-07-31T03:32:05;15.00;99.90
23507;DHT22;11930;53.076;18.250;2023-07-31T03:34:31;15.10;99.90
23507;DHT22;11930;53.076;18.250;2023-07-31T03:36:58;15.10;99.90
23507;DHT22;11930;53.076;18.250;2023-07-31T03:39:24;15.20;99.90
23507;DHT22;11930;53.076;18.250;2023-07-31T03:41:50;15.20;99.90
23507;DHT22;11930;53.076;18.250;2023-07-31T03:44:17;15.30;99.90
23507;DHT22;11930;53.076;18.250;2023-07-31T03:46:43;15.40;99.90
23507;DHT22;11930;53.076;18.250;2023-07-31T03:51:36;15.70;99.90
23507;DHT22;11930;53.076;18.250;2023-07-31T03:54:01;16.10;99.90
23507;DHT22;11930;53.076;18.250;2023-07-31T03:56:28;16.30;99.90
23507;DHT22;11930;53.076;18.250;2023-07-31T03:58:53;16.50;99.90
23507;DHT22;11930;53.076;18.250;2023-07-31T04:01:20;16.60;99.90
23507;DHT22;11930;53.076;18.250;2023-07-31T04:03:46;16.80;99.90
23507;DHT22;11930;53.076;18.250;2023-07-31T04:06:12;17.10;99.90
23507;DHT22;11930;53.076;18.250;2023-07-31T04:08:38;17.60;99.90
23507;DHT22;11930;53.076;18.250;2023-07-31T04:11:04;18.10;99.90
23507;DHT22;11930;53.076;18.250;2023-07-31T04:13:30;18.60;99.90
23507;DHT22;11930;53.076;18.250;2023-07-31T04:15:56;19.00;99.90
23507;DHT22;11930;53.076;18.250;2023-07-31T04:18:24;19.20;99.90
23507;DHT22;11930;53.076;18.250;2023-07-31T04:20:50;19.10;99.90
23507;DHT22;11930;53.076;18.250;2023-07-31T04:23:16;18.90;99.90
23507;DHT22;11930;53.076;18.250;2023-07-31T04:25:42;18.50;99.90
23507;DHT22;11930;53.076;18.250;2023-07-31T04:28:08;18.40;99.90
23507;DHT22;11930;53.076;18.250;2023-07-31T04:30:35;18.00;99.90
23507;DHT22;11930;53.076;18.250;2023-07-31T04:33:02;17.90;99.90
23507;DHT22;11930;53.076;18.250;2023-07-31T04:35:29;17.50;99.90
23507;DHT22;11930;53.076;18.250;2023-07-31T04:37:55;17.40;99.90
23507;DHT22;11930;53.076;18.250;2023-07-31T04:40:21;17.20;99.90
23507;DHT22;11930;53.076;18.250;2023-07-31T04:42:47;17.20;99.90
23507;DHT22;11930;53.076;18.250;2023-07-31T04:45:14;17.40;99.90
23507;DHT22;11930;53.076;18.250;2023-07-31T04:47:40;17.80;99.90
23507;DHT22;11930;53.076;18.250;2023-07-31T04:50:06;18.00;99.90
23507;DHT22;11930;53.076;18.250;2023-07-31T04:52:32;18.60;99.90
23507;DHT22;11930;53.076;18.250;2023-07-31T04:55:00;19.30;99.90
23507;DHT22;11930;53.076;18.250;2023-07-31T04:57:26;19.90;99.90
23507;DHT22;11930;53.076;18.250;2023-07-31T04:59:52;20.40;99.90
23507;DHT22;11930;53.076;18.250;2023-07-31T05:02:18;20.80;99.90
23507;DHT22;11930;53.076;18.250;2023-07-31T05:04:44;21.10;99.90
23507;DHT22;11930;53.076;18.250;2023-07-31T05:07:10;21.30;99.90
23507;DHT22;11930;53.076;18.250;2023-07-31T05:09:36;21.60;99.90
23507;DHT22;11930;53.076;18.250;2023-07-31T05:12:04;22.00;99.90
23507;DHT22;11930;53.076;18.250;2023-07-31T05:14:31;22.20;99.90
23507;DHT22;11930;53.076;18.250;2023-07-31T05:16:56;22.50;99.90
23507;DHT22;11930;53.076;18.250;2023-07-31T05:19:22;22.80;99.90
23507;DHT22;11930;53.076;18.250;2023-07-31T05:21:49;23.10;99.90
23507;DHT22;11930;53.076;18.250;2023-07-31T05:24:15;23.30;99.90
23507;DHT22;11930;53.076;18.250;2023-07-31T05:26:41;23.60;99.90
23507;DHT22;11930;53.076;18.250;2023-07-31T05:29:07;23.70;99.80
23507;DHT22;11930;53.076;18.250;2023-07-31T05:31:33;23.80;99.60
23507;DHT22;11930;53.076;18.250;2023-07-31T05:33:59;24.00;98.30
23507;DHT22;11930;53.076;18.250;2023-07-31T05:36:25;24.00;97.70
23507;DHT22;11930;53.076;18.250;2023-07-31T05:38:51;24.10;96.40
23507;DHT22;11930;53.076;18.250;2023-07-31T05:41:17;23.90;96.10
23507;DHT22;11930;53.076;18.250;2023-07-31T05:43:44;23.70;96.30
23507;DHT22;11930;53.076;18.250;2023-07-31T05:46:10;23.70;96.00
23507;DHT22;11930;53.076;18.250;2023-07-31T05:48:37;23.70;96.80
23507;DHT22;11930;53.076;18.250;2023-07-31T05:51:03;24.00;96.20
23507;DHT22;11930;53.076;18.250;2023-07-31T05:53:29;24.20;94.60
23507;DHT22;11930;53.076;18.250;2023-07-31T05:55:55;24.40;93.70
23507;DHT22;11930;53.076;18.250;2023-07-31T05:58:22;24.40;93.30
23507;DHT22;11930;53.076;18.250;2023-07-31T06:00:48;24.20;92.00
23507;DHT22;11930;53.076;18.250;2023-07-31T06:03:14;23.80;92.60
23507;DHT22;11930;53.076;18.250;2023-07-31T06:05:40;23.00;94.30
23507;DHT22;11930;53.076;18.250;2023-07-31T06:08:07;22.80;94.30
23507;DHT22;11930;53.076;18.250;2023-07-31T06:10:32;22.30;96.70
23507;DHT22;11930;53.076;18.250;2023-07-31T06:12:59;21.80;98.90
23507;DHT22;11930;53.076;18.250;2023-07-31T06:15:25;21.40;99.90
23507;DHT22;11930;53.076;18.250;2023-07-31T06:17:51;21.10;99.90
23507;DHT22;11930;53.076;18.250;2023-07-31T06:20:17;20.70;99.90
23507;DHT22;11930;53.076;18.250;2023-07-31T06:22:43;20.60;99.90
23507;DHT22;11930;53.076;18.250;2023-07-31T06:25:09;20.30;99.90
23507;DHT22;11930;53.076;18.250;2023-07-31T06:27:35;20.10;99.90
23507;DHT22;11930;53.076;18.250;2023-07-31T06:30:01;20.00;99.90
23507;DHT22;11930;53.076;18.250;2023-07-31T06:32:28;19.90;99.90
23507;DHT22;11930;53.076;18.250;2023-07-31T06:34:54;19.90;99.90
23507;DHT22;11930;53.076;18.250;2023-07-31T06:37:20;19.90;99.90
23507;DHT22;11930;53.076;18.250;2023-07-31T06:39:46;19.80;99.90
23507;DHT22;11930;53.076;18.250;2023-07-31T06:42:12;19.80;99.90
23507;DHT22;11930;53.076;18.250;2023-07-31T06:44:38;19.80;99.90
23507;DHT22;11930;53.076;18.250;2023-07-31T06:47:04;19.80;99.90
23507;DHT22;11930;53.076;18.250;2023-07-31T06:49:30;19.90;99.90
23507;DHT22;11930;53.076;18.250;2023-07-31T06:51:56;20.00;99.90
23507;DHT22;11930;53.076;18.250;2023-07-31T06:54:22;20.10;99.90
23507;DHT22;11930;53.076;18.250;2023-07-31T06:56:48;20.10;99.90
23507;DHT22;11930;53.076;18.250;2023-07-31T06:59:14;20.10;99.90
23507;DHT22;11930;53.076;18.250;2023-07-31T07:01:41;20.20;99.90
23507;DHT22;11930;53.076;18.250;2023-07-31T07:04:06;20.30;99.90
23507;DHT22;11930;53.076;18.250;2023-07-31T07:06:33;20.40;99.90
23507;DHT22;11930;53.076;18.250;2023-07-31T07:08:59;20.50;99.90
23507;DHT22;11930;53.076;18.250;2023-07-31T07:11:25;20.50;99.90
23507;DHT22;11930;53.076;18.250;2023-07-31T07:13:51;20.50;99.90
23507;DHT22;11930;53.076;18.250;2023-07-31T07:16:18;20.50;99.90
23507;DHT22;11930;53.076;18.250;2023-07-31T07:18:43;20.50;99.90
23507;DHT22;11930;53.076;18.250;2023-07-31T07:21:10;20.60;99.90
23507;DHT22;11930;53.076;18.250;2023-07-31T07:23:40;20.60;99.90
23507;DHT22;11930;53.076;18.250;2023-07-31T07:26:06;20.50;99.90
23507;DHT22;11930;53.076;18.250;2023-07-31T07:28:32;20.50;99.90
23507;DHT22;11930;53.076;18.250;2023-07-31T07:30:58;20.50;99.90
23507;DHT22;11930;53.076;18.250;2023-07-31T07:33:24;20.40;99.90
23507;DHT22;11930;53.076;18.250;2023-07-31T07:35:50;20.40;99.90
23507;DHT22;11930;53.076;18.250;2023-07-31T07:38:16;20.50;99.90
23507;DHT22;11930;53.076;18.250;2023-07-31T07:40:42;20.50;99.90
23507;DHT22;11930;53.076;18.250;2023-07-31T07:43:08;20.60;99.90
23507;DHT22;11930;53.076;18.250;2023-07-31T07:45:34;20.80;99.90
23507;DHT22;11930;53.076;18.250;2023-07-31T07:48:00;20.80;99.90
23507;DHT22;11930;53.076;18.250;2023-07-31T07:50:26;20.90;99.90
23507;DHT22;11930;53.076;18.250;2023-07-31T07:52:52;21.30;99.90
23507;DHT22;11930;53.076;18.250;2023-07-31T07:55:18;21.30;99.90
23507;DHT22;11930;53.076;18.250;2023-07-31T07:57:44;21.50;99.90
23507;DHT22;11930;53.076;18.250;2023-07-31T08:00:12;21.70;99.90
23507;DHT22;11930;53.076;18.250;2023-07-31T08:02:42;21.90;99.90
23507;DHT22;11930;53.076;18.250;2023-07-31T08:05:09;22.00;99.90
23507;DHT22;11930;53.076;18.250;2023-07-31T08:07:35;22.10;99.90
23507;DHT22;11930;53.076;18.250;2023-07-31T08:10:01;22.10;99.90
23507;DHT22;11930;53.076;18.250;2023-07-31T08:12:27;22.30;99.90
23507;DHT22;11930;53.076;18.250;2023-07-31T08:14:54;22.70;99.90
23507;DHT22;11930;53.076;18.250;2023-07-31T08:19:46;23.30;99.90
23507;DHT22;11930;53.076;18.250;2023-07-31T08:22:12;23.80;99.50
23507;DHT22;11930;53.076;18.250;2023-07-31T08:24:40;23.80;94.80
23507;DHT22;11930;53.076;18.250;2023-07-31T08:27:06;23.90;95.90
23507;DHT22;11930;53.076;18.250;2023-07-31T08:29:32;23.90;92.40
23507;DHT22;11930;53.076;18.250;2023-07-31T08:31:58;23.90;94.20
23507;DHT22;11930;53.076;18.250;2023-07-31T08:34:25;23.80;93.20
23507;DHT22;11930;53.076;18.250;2023-07-31T08:36:50;23.60;90.20
23507;DHT22;11930;53.076;18.250;2023-07-31T08:39:17;23.40;92.50
23507;DHT22;11930;53.076;18.250;2023-07-31T08:41:43;23.20;91.90
23507;DHT22;11930;53.076;18.250;2023-07-31T08:44:10;23.20;93.60
23507;DHT22;11930;53.076;18.250;2023-07-31T08:46:37;23.10;93.50
23507;DHT22;11930;53.076;18.250;2023-07-31T08:49:05;23.20;92.60
23507;DHT22;11930;53.076;18.250;2023-07-31T08:51:34;23.20;92.70
23507;DHT22;11930;53.076;18.250;2023-07-31T08:54:01;23.30;92.50
23507;DHT22;11930;53.076;18.250;2023-07-31T08:56:33;23.40;93.90
23507;DHT22;11930;53.076;18.250;2023-07-31T08:59:07;23.50;93.80
23507;DHT22;11930;53.076;18.250;2023-07-31T09:01:40;23.60;89.90
23507;DHT22;11930;53.076;18.250;2023-07-31T09:04:10;23.50;90.70
23507;DHT22;11930;53.076;18.250;2023-07-31T09:06:38;23.40;91.70
23507;DHT22;11930;53.076;18.250;2023-07-31T09:09:05;23.20;92.60
23507;DHT22;11930;53.076;18.250;2023-07-31T09:11:30;23.10;92.90
23507;DHT22;11930;53.076;18.250;2023-07-31T09:14:00;23.00;92.50
23507;DHT22;11930;53.076;18.250;2023-07-31T09:16:34;22.80;94.00
23507;DHT22;11930;53.076;18.250;2023-07-31T09:19:00;22.70;95.50
23507;DHT22;11930;53.076;18.250;2023-07-31T09:21:30;22.70;94.50
23507;DHT22;11930;53.076;18.250;2023-07-31T09:23:57;22.60;94.60
23507;DHT22;11930;53.076;18.250;2023-07-31T09:26:36;22.60;95.30
23507;DHT22;11930;53.076;18.250;2023-07-31T09:29:06;22.60;96.40
23507;DHT22;11930;53.076;18.250;2023-07-31T09:31:43;22.60;95.60
23507;DHT22;11930;53.076;18.250;2023-07-31T09:34:10;22.50;95.50
23507;DHT22;11930;53.076;18.250;2023-07-31T09:36:44;22.50;95.50
23507;DHT22;11930;53.076;18.250;2023-07-31T09:39:11;22.50;95.90
23507;DHT22;11930;53.076;18.250;2023-07-31T09:41:39;22.50;94.90
23507;DHT22;11930;53.076;18.250;2023-07-31T09:44:06;22.50;95.80
23507;DHT22;11930;53.076;18.250;2023-07-31T09:46:35;22.60;97.20
23507;DHT22;11930;53.076;18.250;2023-07-31T09:49:08;22.50;94.90
23507;DHT22;11930;53.076;18.250;2023-07-31T09:51:38;22.50;95.80
23507;DHT22;11930;53.076;18.250;2023-07-31T09:54:14;22.40;94.60
23507;DHT22;11930;53.076;18.250;2023-07-31T09:56:48;22.40;94.70
23507;DHT22;11930;53.076;18.250;2023-07-31T09:59:16;22.30;94.80
23507;DHT22;11930;53.076;18.250;2023-07-31T10:01:44;22.00;96.50
23507;DHT22;11930;53.076;18.250;2023-07-31T10:04:13;21.80;96.30
23507;DHT22;11930;53.076;18.250;2023-07-31T10:06:40;21.70;97.40
23507;DHT22;11930;53.076;18.250;2023-07-31T10:09:13;21.50;98.80
23507;DHT22;11930;53.076;18.250;2023-07-31T10:11:45;21.30;99.20
23507;DHT22;11930;53.076;18.250;2023-07-31T10:14:20;21.00;99.90
23507;DHT22;11930;53.076;18.250;2023-07-31T10:16:47;20.80;99.90
23507;DHT22;11930;53.076;18.250;2023-07-31T10:19:14;20.10;99.90
23507;DHT22;11930;53.076;18.250;2023-07-31T10:21:40;20.10;99.90
23507;DHT22;11930;53.076;18.250;2023-07-31T10:24:08;19.70;99.90
23507;DHT22;11930;53.076;18.250;2023-07-31T10:26:35;19.40;99.90
23507;DHT22;11930;53.076;18.250;2023-07-31T10:29:04;19.10;99.90
23507;DHT22;11930;53.076;18.250;2023-07-31T10:31:30;19.10;99.90
23507;DHT22;11930;53.076;18.250;2023-07-31T10:33:58;19.10;99.90
23507;DHT22;11930;53.076;18.250;2023-07-31T10:36:25;19.20;99.90
23507;DHT22;11930;53.076;18.250;2023-07-31T10:38:55;19.30;99.90
23507;DHT22;11930;53.076;18.250;2023-07-31T10:44:01;19.30;99.90
23507;DHT22;11930;53.076;18.250;2023-07-31T10:46:29;19.20;99.90
23507;DHT22;11930;53.076;18.250;2023-07-31T10:49:00;19.20;99.90
23507;DHT22;11930;53.076;18.250;2023-07-31T10:51:33;19.20;99.90
23507;DHT22;11930;53.076;18.250;2023-07-31T10:54:21;19.30;99.90
23507;DHT22;11930;53.076;18.250;2023-07-31T10:56:50;19.50;99.90
23507;DHT22;11930;53.076;18.250;2023-07-31T10:59:16;19.60;99.90
23507;DHT22;11930;53.076;18.250;2023-07-31T11:01:56;19.80;99.90
23507;DHT22;11930;53.076;18.250;2023-07-31T11:04:29;20.00;99.90
23507;DHT22;11930;53.076;18.250;2023-07-31T11:07:01;20.10;99.90
23507;DHT22;11930;53.076;18.250;2023-07-31T11:09:30;20.20;99.90
23507;DHT22;11930;53.076;18.250;2023-07-31T11:11:57;20.40;99.90
23507;DHT22;11930;53.076;18.250;2023-07-31T11:14:24;20.50;99.90
23507;DHT22;11930;53.076;18.250;2023-07-31T11:16:50;20.60;99.90
23507;DHT22;11930;53.076;18.250;2023-07-31T11:19:22;20.70;99.90
23507;DHT22;11930;53.076;18.250;2023-07-31T11:21:49;20.60;99.90
23507;DHT22;11930;53.076;18.250;2023-07-31T11:24:16;20.50;99.90
23507;DHT22;11930;53.076;18.250;2023-07-31T11:26:52;20.30;99.90
23507;DHT22;11930;53.076;18.250;2023-07-31T11:29:19;20.20;99.90
23507;DHT22;11930;53.076;18.250;2023-07-31T11:31:46;20.00;99.90
23507;DHT22;11930;53.076;18.250;2023-07-31T11:34:13;19.90;99.90
23507;DHT22;11930;53.076;18.250;2023-07-31T11:36:39;19.80;99.90
23507;DHT22;11930;53.076;18.250;2023-07-31T11:39:09;19.70;99.90
23507;DHT22;11930;53.076;18.250;2023-07-31T11:41:36;19.60;99.90
23507;DHT22;11930;53.076;18.250;2023-07-31T11:44:02;19.60;99.90
23507;DHT22;11930;53.076;18.250;2023-07-31T11:46:30;19.60;99.90
23507;DHT22;11930;53.076;18.250;2023-07-31T11:49:00;19.60;99.90
23507;DHT22;11930;53.076;18.250;2023-07-31T11:51:27;19.50;99.90
23507;DHT22;11930;53.076;18.250;2023-07-31T11:54:00;19.50;99.90
23507;DHT22;11930;53.076;18.250;2023-07-31T11:56:28;19.40;99.90
23507;DHT22;11930;53.076;18.250;2023-07-31T11:58:59;19.50;99.90
23507;DHT22;11930;53.076;18.250;2023-07-31T12:01:26;19.80;99.90
23507;DHT22;11930;53.076;18.250;2023-07-31T12:03:54;20.20;99.90
23507;DHT22;11930;53.076;18.250;2023-07-31T12:06:20;20.50;99.90
23507;DHT22;11930;53.076;18.250;2023-07-31T12:08:47;20.80;99.90
23507;DHT22;11930;53.076;18.250;2023-07-31T12:11:13;20.80;99.90
23507;DHT22;11930;53.076;18.250;2023-07-31T12:13:40;20.90;99.90
23507;DHT22;11930;53.076;18.250;2023-07-31T12:16:06;20.80;99.90
23507;DHT22;11930;53.076;18.250;2023-07-31T12:18:36;20.90;99.90
23507;DHT22;11930;53.076;18.250;2023-07-31T12:21:04;21.00;99.90
23507;DHT22;11930;53.076;18.250;2023-07-31T12:23:32;21.10;99.90
23507;DHT22;11930;53.076;18.250;2023-07-31T12:26:13;21.00;99.90
23507;DHT22;11930;53.076;18.250;2023-07-31T12:28:44;20.90;99.90
23507;DHT22;11930;53.076;18.250;2023-07-31T12:31:22;20.70;99.90
23507;DHT22;11930;53.076;18.250;2023-07-31T12:33:50;20.40;99.90
23507;DHT22;11930;53.076;18.250;2023-07-31T12:36:18;20.10;99.90
23507;DHT22;11930;53.076;18.250;2023-07-31T12:38:46;19.90;99.90
23507;DHT22;11930;53.076;18.250;2023-07-31T12:41:12;19.80;99.90
23507;DHT22;11930;53.076;18.250;2023-07-31T12:43:40;19.60;99.90
23507;DHT22;11930;53.076;18.250;2023-07-31T12:46:09;19.40;99.90
23507;DHT22;11930;53.076;18.250;2023-07-31T12:48:36;19.20;99.90
23507;DHT22;11930;53.076;18.250;2023-07-31T12:51:03;19.20;99.90
23507;DHT22;11930;53.076;18.250;2023-07-31T12:53:29;19.10;99.90
23507;DHT22;11930;53.076;18.250;2023-07-31T12:55:56;19.10;99.90
23507;DHT22;11930;53.076;18.250;2023-07-31T12:58:23;19.10;99.90
23507;DHT22;11930;53.076;18.250;2023-07-31T13:00:49;19.00;99.90
23507;DHT22;11930;53.076;18.250;2023-07-31T13:03:15;19.00;99.90
23507;DHT22;11930;53.076;18.250;2023-07-31T13:05:42;19.00;99.90
23507;DHT22;11930;53.076;18.250;2023-07-31T13:08:08;19.10;99.90
23507;DHT22;11930;53.076;18.250;2023-07-31T13:10:34;19.10;99.90
23507;DHT22;11930;53.076;18.250;2023-07-31T13:13:00;19.10;99.90
23507;DHT22;11930;53.076;18.250;2023-07-31T13:15:26;19.20;99.90
23507;DHT22;11930;53.076;18.250;2023-07-31T13:17:52;19.20;99.90
23507;DHT22;11930;53.076;18.250;2023-07-31T13:20:18;19.20;99.90
23507;DHT22;11930;53.076;18.250;2023-07-31T13:25:12;19.30;99.90
23507;DHT22;11930;53.076;18.250;2023-07-31T13:27:38;19.30;99.90
23507;DHT22;11930;53.076;18.250;2023-07-31T13:30:04;19.30;99.90
23507;DHT22;11930;53.076;18.250;2023-07-31T13:32:32;19.30;99.90
23507;DHT22;11930;53.076;18.250;2023-07-31T13:34:58;19.30;99.90
23507;DHT22;11930;53.076;18.250;2023-07-31T13:37:24;19.30;99.90
23507;DHT22;11930;53.076;18.250;2023-07-31T13:39:50;19.20;99.90
23507;DHT22;11930;53.076;18.250;2023-07-31T13:42:16;19.20;99.90
23507;DHT22;11930;53.076;18.250;2023-07-31T13:44:42;19.20;99.90
23507;DHT22;11930;53.076;18.250;2023-07-31T13:47:09;19.20;99.90
23507;DHT22;11930;53.076;18.250;2023-07-31T13:49:36;19.20;99.90
23507;DHT22;11930;53.076;18.250;2023-07-31T13:52:02;19.30;99.90
23507;DHT22;11930;53.076;18.250;2023-07-31T13:54:29;19.40;99.90
23507;DHT22;11930;53.076;18.250;2023-07-31T13:56:55;19.50;99.90
23507;DHT22;11930;53.076;18.250;2023-07-31T13:59:21;19.60;99.90
23507;DHT22;11930;53.076;18.250;2023-07-31T14:01:48;19.70;99.90
23507;DHT22;11930;53.076;18.250;2023-07-31T14:04:14;19.80;99.90
23507;DHT22;11930;53.076;18.250;2023-07-31T14:06:54;19.70;99.90
23507;DHT22;11930;53.076;18.250;2023-07-31T14:09:21;19.70;99.90
23507;DHT22;11930;53.076;18.250;2023-07-31T14:11:47;19.60;99.90
23507;DHT22;11930;53.076;18.250;2023-07-31T14:14:13;19.60;99.90
23507;DHT22;11930;53.076;18.250;2023-07-31T14:19:06;19.60;99.90
23507;DHT22;11930;53.076;18.250;2023-07-31T14:21:34;19.70;99.90
23507;DHT22;11930;53.076;18.250;2023-07-31T14:26:26;19.70;99.90
23507;DHT22;11930;53.076;18.250;2023-07-31T14:28:52;19.80;99.90
23507;DHT22;11930;53.076;18.250;2023-07-31T14:31:19;19.80;99.90
23507;DHT22;11930;53.076;18.250;2023-07-31T14:33:44;19.60;99.90
23507;DHT22;11930;53.076;18.250;2023-07-31T14:36:11;19.40;99.90
23507;DHT22;11930;53.076;18.250;2023-07-31T14:38:36;19.40;99.90
23507;DHT22;11930;53.076;18.250;2023-07-31T14:41:03;19.30;99.90
23507;DHT22;11930;53.076;18.250;2023-07-31T14:43:29;19.30;99.90
23507;DHT22;11930;53.076;18.250;2023-07-31T14:45:55;19.20;99.90
23507;DHT22;11930;53.076;18.250;2023-07-31T14:48:25;19.20;99.90
23507;DHT22;11930;53.076;18.250;2023-07-31T14:55:44;19.30;99.90
23507;DHT22;11930;53.076;18.250;2023-07-31T14:58:10;19.30;99.90
23507;DHT22;11930;53.076;18.250;2023-07-31T15:00:37;19.40;99.90
23507;DHT22;11930;53.076;18.250;2023-07-31T15:03:03;19.30;99.90
23507;DHT22;11930;53.076;18.250;2023-07-31T15:05:29;19.30;99.90
23507;DHT22;11930;53.076;18.250;2023-07-31T15:07:55;19.40;99.90
23507;DHT22;11930;53.076;18.250;2023-07-31T15:10:22;19.40;99.90
23507;DHT22;11930;53.076;18.250;2023-07-31T15:12:47;19.30;99.90
23507;DHT22;11930;53.076;18.250;2023-07-31T15:15:15;19.30;99.90
23507;DHT22;11930;53.076;18.250;2023-07-31T15:17:41;19.30;99.90
23507;DHT22;11930;53.076;18.250;2023-07-31T15:20:07;19.20;99.90
23507;DHT22;11930;53.076;18.250;2023-07-31T15:22:33;19.20;99.90
23507;DHT22;11930;53.076;18.250;2023-07-31T15:24:59;19.20;99.90
23507;DHT22;11930;53.076;18.250;2023-07-31T15:27:25;19.10;99.90
23507;DHT22;11930;53.076;18.250;2023-07-31T15:29:51;19.00;99.90
23507;DHT22;11930;53.076;18.250;2023-07-31T15:32:17;19.00;99.90
23507;DHT22;11930;53.076;18.250;2023-07-31T15:34:45;19.20;99.90
23507;DHT22;11930;53.076;18.250;2023-07-31T15:37:10;19.20;99.90
23507;DHT22;11930;53.076;18.250;2023-07-31T15:39:37;19.40;99.90
23507;DHT22;11930;53.076;18.250;2023-07-31T15:42:03;19.50;99.90
23507;DHT22;11930;53.076;18.250;2023-07-31T15:44:29;19.70;99.90
23507;DHT22;11930;53.076;18.250;2023-07-31T15:49:22;19.80;99.90